sensor_id;sensor_type;location;lat;lon;timestamp;temperature;humidity
67358;HTU21D;54240;51.096;5.878;2023-03-23T00:01:25;13.32;-6.00
67358;HTU21D;54240;51.096;5.878;2023-03-23T00:03:56;13.40;-6.00
67358;HTU21D;54240;51.096;5.878;2023-03-23T00:06:25;13.38;-6.00
67358;HTU21D;54240;51.096;5.878;2023-03-23T00:08:54;13.52;-6.00
67358;HTU21D;54240;51.096;5.878;2023-03-23T00:11:30;13.38;-6.00
67358;HTU21D;54240;51.096;5.878;2023-03-23T00:13:58;13.29;-6.00
67358;HTU21D;54240;51.096;5.878;2023-03-23T00:16:30;13.34;-6.00
67358;HTU21D;54240;51.096;5.878;2023-03-23T00:19:02;13.41;-6.00
67358;HTU21D;54240;51.096;5.878;2023-03-23T00:21:35;13.38;-6.00
67358;HTU21D;54240;51.096;5.878;2023-03-23T00:24:08;13.37;-6.00
67358;HTU21D;54240;51.096;5.878;2023-03-23T00:26:40;13.35;-6.00
67358;HTU21D;54240;51.096;5.878;2023-03-23T00:29:26;13.37;-6.00
67358;HTU21D;54240;51.096;5.878;2023-03-23T00:31:52;13.38;-6.00
67358;HTU21D;54240;51.096;5.878;2023-03-23T00:34:23;13.40;-6.00
67358;HTU21D;54240;51.096;5.878;2023-03-23T00:36:52;13.33;-6.00
67358;HTU21D;54240;51.096;5.878;2023-03-23T00:39:27;13.36;-6.00
67358;HTU21D;54240;51.096;5.878;2023-03-23T00:41:54;13.39;-6.00
67358;HTU21D;54240;51.096;5.878;2023-03-23T00:44:31;13.45;-6.00
67358;HTU21D;54240;51.096;5.878;2023-03-23T00:46:58;13.34;-6.00
67358;HTU21D;54240;51.096;5.878;2023-03-23T00:49:25;13.32;-6.00
67358;HTU21D;54240;51.096;5.878;2023-03-23T00:51:52;13.44;-6.00
67358;HTU21D;54240;51.096;5.878;2023-03-23T00:54:19;13.47;-6.00
67358;HTU21D;54240;51.096;5.878;2023-03-23T00:56:48;13.47;-6.00
67358;HTU21D;54240;51.096;5.878;2023-03-23T00:59:14;13.40;-6.00
67358;HTU21D;54240;51.096;5.878;2023-03-23T01:01:41;13.40;-6.00
67358;HTU21D;54240;51.096;5.878;2023-03-23T01:04:08;13.40;-6.00
67358;HTU21D;54240;51.096;5.878;2023-03-23T01:06:39;13.30;-6.00
67358;HTU21D;54240;51.096;5.878;2023-03-23T01:09:12;13.34;-6.00
67358;HTU21D;54240;51.096;5.878;2023-03-23T01:11:44;13.41;-6.00
67358;HTU21D;54240;51.096;5.878;2023-03-23T01:14:12;13.40;-6.00
67358;HTU21D;54240;51.096;5.878;2023-03-23T01:16:39;13.37;-6.00
67358;HTU21D;54240;51.096;5.878;2023-03-23T01:19:05;13.35;-6.00
67358;HTU21D;54240;51.096;5.878;2023-03-23T01:21:31;13.24;-6.00
67358;HTU21D;54240;51.096;5.878;2023-03-23T01:23:57;13.31;-6.00
67358;HTU21D;54240;51.096;5.878;2023-03-23T01:26:26;13.30;-6.00
67358;HTU21D;54240;51.096;5.878;2023-03-23T01:28:53;13.25;-6.00
67358;HTU21D;54240;51.096;5.878;2023-03-23T01:31:22;13.26;-6.00
67358;HTU21D;54240;51.096;5.878;2023-03-23T01:33:48;13.34;-6.00
67358;HTU21D;54240;51.096;5.878;2023-03-23T01:36:20;13.18;-6.00
67358;HTU21D;54240;51.096;5.878;2023-03-23T01:38:48;13.22;-6.00
67358;HTU21D;54240;51.096;5.878;2023-03-23T01:41:16;13.25;-6.00
67358;HTU21D;54240;51.096;5.878;2023-03-23T01:44:05;13.19;-6.00
67358;HTU21D;54240;51.096;5.878;2023-03-23T01:46:38;13.16;-6.00
67358;HTU21D;54240;51.096;5.878;2023-03-23T01:49:27;13.20;-6.00
67358;HTU21D;54240;51.096;5.878;2023-03-23T01:54:30;13.15;-6.00
67358;HTU21D;54240;51.096;5.878;2023-03-23T01:57:02;13.24;-6.00
67358;HTU21D;54240;51.096;5.878;2023-03-23T01:59:32;13.16;-6.00
67358;HTU21D;54240;51.096;5.878;2023-03-23T02:02:22;13.12;-6.00
67358;HTU21D;54240;51.096;5.878;2023-03-23T02:04:49;13.09;-6.00
67358;HTU21D;54240;51.096;5.878;2023-03-23T02:07:20;13.12;-6.00
67358;HTU21D;54240;51.096;5.878;2023-03-23T02:09:50;13.14;-6.00
67358;HTU21D;54240;51.096;5.878;2023-03-23T02:12:16;13.02;-6.00
67358;HTU21D;54240;51.096;5.878;2023-03-23T02:14:42;13.05;-6.00
67358;HTU21D;54240;51.096;5.878;2023-03-23T02:25:29;12.96;-6.00
67358;HTU21D;54240;51.096;5.878;2023-03-23T02:33:56;12.90;-6.00
67358;HTU21D;54240;51.096;5.878;2023-03-23T02:36:32;12.87;-6.00
67358;HTU21D;54240;51.096;5.878;2023-03-23T02:39:18;12.85;-6.00
67358;HTU21D;54240;51.096;5.878;2023-03-23T02:42:05;12.97;-6.00
67358;HTU21D;54240;51.096;5.878;2023-03-23T02:44:36;12.82;-6.00
67358;HTU21D;54240;51.096;5.878;2023-03-23T02:47:09;13.01;-6.00
67358;HTU21D;54240;51.096;5.878;2023-03-23T02:49:40;12.99;-6.00
67358;HTU21D;54240;51.096;5.878;2023-03-23T02:52:11;12.84;-6.00
67358;HTU21D;54240;51.096;5.878;2023-03-23T02:54:44;13.00;-6.00
67358;HTU21D;54240;51.096;5.878;2023-03-23T02:57:11;13.01;-6.00
67358;HTU21D;54240;51.096;5.878;2023-03-23T02:59:40;12.91;-6.00
67358;HTU21D;54240;51.096;5.878;2023-03-23T03:04:41;13.00;-6.00
67358;HTU21D;54240;51.096;5.878;2023-03-23T03:07:36;12.94;-6.00
67358;HTU21D;54240;51.096;5.878;2023-03-23T03:10:31;12.89;-6.00
67358;HTU21D;54240;51.096;5.878;2023-03-23T03:13:11;13.01;-6.00
67358;HTU21D;54240;51.096;5.878;2023-03-23T03:16:16;12.95;-6.00
67358;HTU21D;54240;51.096;5.878;2023-03-23T03:18:40;12.96;-6.00
67358;HTU21D;54240;51.096;5.878;2023-03-23T03:21:12;13.00;-6.00
67358;HTU21D;54240;51.096;5.878;2023-03-23T03:23:44;13.01;-6.00
67358;HTU21D;54240;51.096;5.878;2023-03-23T03:26:14;13.04;-6.00
67358;HTU21D;54240;51.096;5.878;2023-03-23T03:28:49;12.86;-6.00
67358;HTU21D;54240;51.096;5.878;2023-03-23T03:31:21;12.93;-6.00
67358;HTU21D;54240;51.096;5.878;2023-03-23T03:33:47;12.95;-6.00
67358;HTU21D;54240;51.096;5.878;2023-03-23T03:36:35;12.88;-6.00
67358;HTU21D;54240;51.096;5.878;2023-03-23T03:39:07;12.91;-6.00
67358;HTU21D;54240;51.096;5.878;2023-03-23T03:41:37;12.90;-6.00
67358;HTU21D;54240;51.096;5.878;2023-03-23T03:44:04;12.96;-6.00
67358;HTU21D;54240;51.096;5.878;2023-03-23T03:46:32;12.95;-6.00
67358;HTU21D;54240;51.096;5.878;2023-03-23T03:49:01;12.96;-6.00
67358;HTU21D;54240;51.096;5.878;2023-03-23T03:51:29;12.92;-6.00
67358;HTU21D;54240;51.096;5.878;2023-03-23T03:53:55;13.03;-6.00
67358;HTU21D;54240;51.096;5.878;2023-03-23T03:56:23;12.96;-6.00
67358;HTU21D;54240;51.096;5.878;2023-03-23T03:59:02;13.05;-6.00
67358;HTU21D;54240;51.096;5.878;2023-03-23T04:01:58;13.05;-6.00
67358;HTU21D;54240;51.096;5.878;2023-03-23T04:04:24;13.03;-6.00
67358;HTU21D;54240;51.096;5.878;2023-03-23T04:06:50;13.03;-6.00
67358;HTU21D;54240;51.096;5.878;2023-03-23T04:09:16;13.00;-6.00
67358;HTU21D;54240;51.096;5.878;2023-03-23T04:11:42;12.92;-6.00
67358;HTU21D;54240;51.096;5.878;2023-03-23T04:14:37;13.06;-6.00
67358;HTU21D;54240;51.096;5.878;2023-03-23T04:17:02;13.16;-6.00
67358;HTU21D;54240;51.096;5.878;2023-03-23T04:19:29;12.95;-6.00
67358;HTU21D;54240;51.096;5.878;2023-03-23T04:21:59;13.08;-6.00
67358;HTU21D;54240;51.096;5.878;2023-03-23T04:24:25;13.01;-6.00
67358;HTU21D;54240;51.096;5.878;2023-03-23T04:26:54;13.04;-6.00
67358;HTU21D;54240;51.096;5.878;2023-03-23T04:29:25;12.90;-6.00
67358;HTU21D;54240;51.096;5.878;2023-03-23T04:32:21;13.12;-6.00
67358;HTU21D;54240;51.096;5.878;2023-03-23T04:34:51;13.02;-6.00
67358;HTU21D;54240;51.096;5.878;2023-03-23T04:37:19;13.03;-6.00
67358;HTU21D;54240;51.096;5.878;2023-03-23T04:39:46;13.15;-6.00
67358;HTU21D;54240;51.096;5.878;2023-03-23T04:42:13;13.12;-6.00
67358;HTU21D;54240;51.096;5.878;2023-03-23T04:45:17;13.04;-6.00
67358;HTU21D;54240;51.096;5.878;2023-03-23T04:47:49;13.01;-6.00
67358;HTU21D;54240;51.096;5.878;2023-03-23T04:50:32;12.97;-6.00
67358;HTU21D;54240;51.096;5.878;2023-03-23T04:53:06;13.03;-6.00
67358;HTU21D;54240;51.096;5.878;2023-03-23T04:55:34;13.05;-6.00
67358;HTU21D;54240;51.096;5.878;2023-03-23T04:58:07;12.94;-6.00
67358;HTU21D;54240;51.096;5.878;2023-03-23T05:00:56;12.99;-6.00
67358;HTU21D;54240;51.096;5.878;2023-03-23T05:03:24;13.10;-6.00
67358;HTU21D;54240;51.096;5.878;2023-03-23T05:05:53;13.10;-6.00
67358;HTU21D;54240;51.096;5.878;2023-03-23T05:08:21;13.08;-6.00
67358;HTU21D;54240;51.096;5.878;2023-03-23T05:10:52;13.12;-6.00
67358;HTU21D;54240;51.096;5.878;2023-03-23T05:13:19;13.12;-6.00
67358;HTU21D;54240;51.096;5.878;2023-03-23T05:15:49;13.26;-6.00
67358;HTU21D;54240;51.096;5.878;2023-03-23T05:18:16;13.16;-6.00
67358;HTU21D;54240;51.096;5.878;2023-03-23T05:20:42;13.01;-6.00
67358;HTU21D;54240;51.096;5.878;2023-03-23T05:23:14;13.30;-6.00
67358;HTU21D;54240;51.096;5.878;2023-03-23T05:25:41;13.03;-6.00
67358;HTU21D;54240;51.096;5.878;2023-03-23T05:28:13;13.14;-6.00
67358;HTU21D;54240;51.096;5.878;2023-03-23T05:31:18;13.17;-6.00
67358;HTU21D;54240;51.096;5.878;2023-03-23T05:33:45;13.12;-6.00
67358;HTU21D;54240;51.096;5.878;2023-03-23T05:36:15;13.12;-6.00
67358;HTU21D;54240;51.096;5.878;2023-03-23T05:39:02;13.11;-6.00
67358;HTU21D;54240;51.096;5.878;2023-03-23T05:41:47;13.26;-6.00
67358;HTU21D;54240;51.096;5.878;2023-03-23T05:44:14;13.17;-6.00
67358;HTU21D;54240;51.096;5.878;2023-03-23T05:46:59;13.30;-6.00
67358;HTU21D;54240;51.096;5.878;2023-03-23T05:49:26;13.30;-6.00
67358;HTU21D;54240;51.096;5.878;2023-03-23T05:51:53;13.21;-6.00
67358;HTU21D;54240;51.096;5.878;2023-03-23T05:54:19;13.29;-6.00
67358;HTU21D;54240;51.096;5.878;2023-03-23T05:56:48;13.30;-6.00
67358;HTU21D;54240;51.096;5.878;2023-03-23T05:59:40;13.23;-6.00
67358;HTU21D;54240;51.096;5.878;2023-03-23T06:02:12;13.17;-6.00
67358;HTU21D;54240;51.096;5.878;2023-03-23T06:04:40;13.30;-6.00
67358;HTU21D;54240;51.096;5.878;2023-03-23T06:07:15;13.29;-6.00
67358;HTU21D;54240;51.096;5.878;2023-03-23T06:09:52;13.22;-6.00
67358;HTU21D;54240;51.096;5.878;2023-03-23T06:12:23;13.25;-6.00
67358;HTU21D;54240;51.096;5.878;2023-03-23T06:15:13;13.25;-6.00
67358;HTU21D;54240;51.096;5.878;2023-03-23T06:17:59;13.24;-6.00
67358;HTU21D;54240;51.096;5.878;2023-03-23T06:20:31;13.29;-6.00
67358;HTU21D;54240;51.096;5.878;2023-03-23T06:23:02;13.21;-6.00
67358;HTU21D;54240;51.096;5.878;2023-03-23T06:25:31;13.21;-6.00
67358;HTU21D;54240;51.096;5.878;2023-03-23T06:27:58;13.29;-6.00
67358;HTU21D;54240;51.096;5.878;2023-03-23T06:30:24;13.34;-6.00
67358;HTU21D;54240;51.096;5.878;2023-03-23T06:32:51;13.20;-6.00
67358;HTU21D;54240;51.096;5.878;2023-03-23T06:35:27;13.23;-6.00
67358;HTU21D;54240;51.096;5.878;2023-03-23T06:38:12;13.26;-6.00
67358;HTU21D;54240;51.096;5.878;2023-03-23T06:40:46;13.11;-6.00
67358;HTU21D;54240;51.096;5.878;2023-03-23T06:43:14;13.05;-6.00
67358;HTU21D;54240;51.096;5.878;2023-03-23T06:46:00;13.22;-6.00
67358;HTU21D;54240;51.096;5.878;2023-03-23T06:48:54;13.05;-6.00
67358;HTU21D;54240;51.096;5.878;2023-03-23T06:51:28;13.23;-6.00
67358;HTU21D;54240;51.096;5.878;2023-03-23T06:53:55;13.25;-6.00
67358;HTU21D;54240;51.096;5.878;2023-03-23T06:56:21;13.17;-6.00
67358;HTU21D;54240;51.096;5.878;2023-03-23T06:58:47;13.25;-6.00
67358;HTU21D;54240;51.096;5.878;2023-03-23T07:01:13;13.22;-6.00
67358;HTU21D;54240;51.096;5.878;2023-03-23T07:03:48;13.17;-6.00
67358;HTU21D;54240;51.096;5.878;2023-03-23T07:06:18;13.19;-6.00
67358;HTU21D;54240;51.096;5.878;2023-03-23T07:08:50;13.14;-6.00
67358;HTU21D;54240;51.096;5.878;2023-03-23T07:11:20;13.27;-6.00
67358;HTU21D;54240;51.096;5.878;2023-03-23T07:13:46;13.31;-6.00
67358;HTU21D;54240;51.096;5.878;2023-03-23T07:16:13;13.30;-6.00
67358;HTU21D;54240;51.096;5.878;2023-03-23T07:18:39;13.24;-6.00
67358;HTU21D;54240;51.096;5.878;2023-03-23T07:21:06;13.27;-6.00
67358;HTU21D;54240;51.096;5.878;2023-03-23T07:23:32;13.33;-6.00
67358;HTU21D;54240;51.096;5.878;2023-03-23T07:26:03;13.27;-6.00
67358;HTU21D;54240;51.096;5.878;2023-03-23T07:28:38;13.33;-6.00
67358;HTU21D;54240;51.096;5.878;2023-03-23T07:31:16;13.33;-6.00
67358;HTU21D;54240;51.096;5.878;2023-03-23T07:33:43;13.39;-6.00
67358;HTU21D;54240;51.096;5.878;2023-03-23T07:36:09;13.47;-6.00
67358;HTU21D;54240;51.096;5.878;2023-03-23T07:38:36;13.45;-6.00
67358;HTU21D;54240;51.096;5.878;2023-03-23T07:41:03;13.40;-6.00
67358;HTU21D;54240;51.096;5.878;2023-03-23T07:43:30;13.48;-6.00
67358;HTU21D;54240;51.096;5.878;2023-03-23T07:46:20;13.65;-6.00
67358;HTU21D;54240;51.096;5.878;2023-03-23T07:49:02;13.59;-6.00
67358;HTU21D;54240;51.096;5.878;2023-03-23T07:51:36;13.54;-6.00
67358;HTU21D;54240;51.096;5.878;2023-03-23T07:54:05;13.80;-6.00
67358;HTU21D;54240;51.096;5.878;2023-03-23T07:56:56;13.76;-6.00
67358;HTU21D;54240;51.096;5.878;2023-03-23T07:59:25;13.92;-6.00
67358;HTU21D;54240;51.096;5.878;2023-03-23T08:01:52;13.91;-6.00
67358;HTU21D;54240;51.096;5.878;2023-03-23T08:04:29;13.86;-6.00
67358;HTU21D;54240;51.096;5.878;2023-03-23T08:07:15;13.92;-6.00
67358;HTU21D;54240;51.096;5.878;2023-03-23T08:10:05;14.09;-6.00
67358;HTU21D;54240;51.096;5.878;2023-03-23T08:12:52;13.94;-6.00
67358;HTU21D;54240;51.096;5.878;2023-03-23T08:15:28;13.96;-6.00
67358;HTU21D;54240;51.096;5.878;2023-03-23T08:17:58;13.96;-6.00
67358;HTU21D;54240;51.096;5.878;2023-03-23T08:20:49;14.11;-6.00
67358;HTU21D;54240;51.096;5.878;2023-03-23T08:23:35;14.23;-6.00
67358;HTU21D;54240;51.096;5.878;2023-03-23T08:26:28;14.12;-6.00
67358;HTU21D;54240;51.096;5.878;2023-03-23T08:29:12;14.23;-6.00
67358;HTU21D;54240;51.096;5.878;2023-03-23T08:32:12;14.12;-6.00
67358;HTU21D;54240;51.096;5.878;2023-03-23T08:35:05;14.21;-6.00
67358;HTU21D;54240;51.096;5.878;2023-03-23T08:37:45;14.19;-6.00
67358;HTU21D;54240;51.096;5.878;2023-03-23T08:40:43;14.10;-6.00
67358;HTU21D;54240;51.096;5.878;2023-03-23T08:43:35;14.14;-6.00
67358;HTU21D;54240;51.096;5.878;2023-03-23T08:46:23;13.94;-6.00
67358;HTU21D;54240;51.096;5.878;2023-03-23T08:49:15;13.91;-6.00
67358;HTU21D;54240;51.096;5.878;2023-03-23T08:51:51;13.26;-6.00
67358;HTU21D;54240;51.096;5.878;2023-03-23T08:54:46;10.96;118.99
67358;HTU21D;54240;51.096;5.878;2023-03-23T08:57:31;10.36;118.99
67358;HTU21D;54240;51.096;5.878;2023-03-23T09:00:18;9.53;118.99
67358;HTU21D;54240;51.096;5.878;2023-03-23T09:03:20;9.41;118.99
67358;HTU21D;54240;51.096;5.878;2023-03-23T09:06:24;8.89;118.99
67358;HTU21D;54240;51.096;5.878;2023-03-23T09:08:51;8.74;118.99
67358;HTU21D;54240;51.096;5.878;2023-03-23T09:11:17;9.04;118.99
67358;HTU21D;54240;51.096;5.878;2023-03-23T09:13:43;9.29;118.99
67358;HTU21D;54240;51.096;5.878;2023-03-23T09:16:09;9.10;118.99
67358;HTU21D;54240;51.096;5.878;2023-03-23T09:18:36;9.19;118.99
67358;HTU21D;54240;51.096;5.878;2023-03-23T09:21:02;9.25;118.99
67358;HTU21D;54240;51.096;5.878;2023-03-23T09:23:28;9.26;118.99
67358;HTU21D;54240;51.096;5.878;2023-03-23T09:25:55;9.11;118.99
67358;HTU21D;54240;51.096;5.878;2023-03-23T09:28:22;9.18;118.99
67358;HTU21D;54240;51.096;5.878;2023-03-23T09:30:48;9.19;118.99
67358;HTU21D;54240;51.096;5.878;2023-03-23T09:33:15;9.24;118.99
67358;HTU21D;54240;51.096;5.878;2023-03-23T09:35:41;9.22;118.99
67358;HTU21D;54240;51.096;5.878;2023-03-23T09:38:10;9.05;118.99
67358;HTU21D;54240;51.096;5.878;2023-03-23T09:40:54;9.04;118.99
67358;HTU21D;54240;51.096;5.878;2023-03-23T09:43:28;8.96;118.99
67358;HTU21D;54240;51.096;5.878;2023-03-23T09:46:38;9.11;118.99
67358;HTU21D;54240;51.096;5.878;2023-03-23T09:49:19;9.15;118.99
67358;HTU21D;54240;51.096;5.878;2023-03-23T09:52:11;9.24;118.99
67358;HTU21D;54240;51.096;5.878;2023-03-23T09:54:41;9.12;118.99
67358;HTU21D;54240;51.096;5.878;2023-03-23T09:57:16;9.08;118.99
67358;HTU21D;54240;51.096;5.878;2023-03-23T09:59:57;9.21;118.99
67358;HTU21D;54240;51.096;5.878;2023-03-23T10:02:36;9.11;118.99
67358;HTU21D;54240;51.096;5.878;2023-03-23T10:08:01;9.18;118.99
67358;HTU21D;54240;51.096;5.878;2023-03-23T10:16:52;9.05;118.99
67358;HTU21D;54240;51.096;5.878;2023-03-23T10:19:31;9.22;118.99
67358;HTU21D;54240;51.096;5.878;2023-03-23T10:22:05;9.23;118.99
67358;HTU21D;54240;51.096;5.878;2023-03-23T10:27:55;9.21;118.99
67358;HTU21D;54240;51.096;5.878;2023-03-23T10:30:24;9.21;118.99
67358;HTU21D;54240;51.096;5.878;2023-03-23T10:33:34;9.29;118.99
67358;HTU21D;54240;51.096;5.878;2023-03-23T10:36:15;9.64;118.99
67358;HTU21D;54240;51.096;5.878;2023-03-23T10:38:46;9.68;118.99
67358;HTU21D;54240;51.096;5.878;2023-03-23T10:41:16;9.95;118.99
67358;HTU21D;54240;51.096;5.878;2023-03-23T10:43:43;10.15;118.99
67358;HTU21D;54240;51.096;5.878;2023-03-23T10:49:14;10.29;118.99
67358;HTU21D;54240;51.096;5.878;2023-03-23T10:51:47;10.30;118.99
67358;HTU21D;54240;51.096;5.878;2023-03-23T10:54:26;10.38;118.99
67358;HTU21D;54240;51.096;5.878;2023-03-23T10:56:52;10.38;118.99
67358;HTU21D;54240;51.096;5.878;2023-03-23T10:59:28;10.50;118.99
67358;HTU21D;54240;51.096;5.878;2023-03-23T11:02:00;10.58;118.99
67358;HTU21D;54240;51.096;5.878;2023-03-23T11:04:30;10.69;118.99
67358;HTU21D;54240;51.096;5.878;2023-03-23T11:07:02;10.81;118.99
67358;HTU21D;54240;51.096;5.878;2023-03-23T11:09:54;11.01;118.99
67358;HTU21D;54240;51.096;5.878;2023-03-23T11:12:20;11.11;118.99
67358;HTU21D;54240;51.096;5.878;2023-03-23T11:14:47;11.24;118.99
67358;HTU21D;54240;51.096;5.878;2023-03-23T11:17:26;11.24;118.99
67358;HTU21D;54240;51.096;5.878;2023-03-23T11:19:53;11.31;118.99
67358;HTU21D;54240;51.096;5.878;2023-03-23T11:22:28;11.31;118.99
67358;HTU21D;54240;51.096;5.878;2023-03-23T11:24:59;11.44;118.99
67358;HTU21D;54240;51.096;5.878;2023-03-23T11:27:28;11.49;118.99
67358;HTU21D;54240;51.096;5.878;2023-03-23T11:29:56;11.54;118.99
67358;HTU21D;54240;51.096;5.878;2023-03-23T11:32:28;11.40;118.99
67358;HTU21D;54240;51.096;5.878;2023-03-23T11:35:00;11.43;118.99
67358;HTU21D;54240;51.096;5.878;2023-03-23T11:37:38;11.38;118.99
67358;HTU21D;54240;51.096;5.878;2023-03-23T11:42:45;11.25;118.99
67358;HTU21D;54240;51.096;5.878;2023-03-23T11:48:35;11.23;118.99
67358;HTU21D;54240;51.096;5.878;2023-03-23T11:51:11;11.14;118.99
67358;HTU21D;54240;51.096;5.878;2023-03-23T11:56:44;11.03;118.99
67358;HTU21D;54240;51.096;5.878;2023-03-23T11:59:33;11.02;118.99
67358;HTU21D;54240;51.096;5.878;2023-03-23T12:02:39;10.97;118.99
67358;HTU21D;54240;51.096;5.878;2023-03-23T12:05:41;11.01;118.99
67358;HTU21D;54240;51.096;5.878;2023-03-23T12:14:23;11.19;118.99
67358;HTU21D;54240;51.096;5.878;2023-03-23T12:23:24;12.02;118.99
67358;HTU21D;54240;51.096;5.878;2023-03-23T12:31:12;12.40;118.99
67358;HTU21D;54240;51.096;5.878;2023-03-23T12:34:01;12.46;118.99
67358;HTU21D;54240;51.096;5.878;2023-03-23T12:36:45;12.45;118.99
67358;HTU21D;54240;51.096;5.878;2023-03-23T12:47:54;13.04;118.99
67358;HTU21D;54240;51.096;5.878;2023-03-23T12:50:44;13.11;118.99
67358;HTU21D;54240;51.096;5.878;2023-03-23T12:53:22;13.11;118.99
67358;HTU21D;54240;51.096;5.878;2023-03-23T12:56:10;13.26;118.99
67358;HTU21D;54240;51.096;5.878;2023-03-23T12:58:44;13.38;118.99
67358;HTU21D;54240;51.096;5.878;2023-03-23T13:01:19;13.41;118.99
67358;HTU21D;54240;51.096;5.878;2023-03-23T13:03:51;13.37;118.99
67358;HTU21D;54240;51.096;5.878;2023-03-23T13:06:41;13.38;118.99
67358;HTU21D;54240;51.096;5.878;2023-03-23T13:11:47;13.29;118.99
67358;HTU21D;54240;51.096;5.878;2023-03-23T13:14:26;13.37;118.99
67358;HTU21D;54240;51.096;5.878;2023-03-23T13:25:26;14.18;118.99
67358;HTU21D;54240;51.096;5.878;2023-03-23T13:27:58;14.58;118.99
67358;HTU21D;54240;51.096;5.878;2023-03-23T13:30:24;14.64;118.99
67358;HTU21D;54240;51.096;5.878;2023-03-23T13:32:51;14.55;118.99
67358;HTU21D;54240;51.096;5.878;2023-03-23T13:35:19;14.42;118.99
67358;HTU21D;54240;51.096;5.878;2023-03-23T13:37:51;14.54;118.99
67358;HTU21D;54240;51.096;5.878;2023-03-23T13:40:25;14.34;118.99
67358;HTU21D;54240;51.096;5.878;2023-03-23T13:42:56;14.34;118.99
67358;HTU21D;54240;51.096;5.878;2023-03-23T13:48:20;13.83;118.99
67358;HTU21D;54240;51.096;5.878;2023-03-23T13:50:56;14.01;118.99
67358;HTU21D;54240;51.096;5.878;2023-03-23T13:53:48;13.79;118.99
67358;HTU21D;54240;51.096;5.878;2023-03-23T13:56:41;13.77;118.99
67358;HTU21D;54240;51.096;5.878;2023-03-23T13:59:31;13.62;118.99
67358;HTU21D;54240;51.096;5.878;2023-03-23T14:04:56;13.29;118.99
67358;HTU21D;54240;51.096;5.878;2023-03-23T14:07:22;13.24;118.99
67358;HTU21D;54240;51.096;5.878;2023-03-23T14:09:50;13.20;118.99
67358;HTU21D;54240;51.096;5.878;2023-03-23T14:12:21;13.19;118.99
67358;HTU21D;54240;51.096;5.878;2023-03-23T14:15:04;13.09;118.99
67358;HTU21D;54240;51.096;5.878;2023-03-23T14:17:45;13.26;118.99
67358;HTU21D;54240;51.096;5.878;2023-03-23T14:20:30;13.11;118.99
67358;HTU21D;54240;51.096;5.878;2023-03-23T14:22:57;13.04;118.99
67358;HTU21D;54240;51.096;5.878;2023-03-23T14:25:29;13.17;118.99
67358;HTU21D;54240;51.096;5.878;2023-03-23T14:27:58;13.29;118.99
67358;HTU21D;54240;51.096;5.878;2023-03-23T14:30:36;13.53;118.99
67358;HTU21D;54240;51.096;5.878;2023-03-23T14:33:05;13.86;118.99
67358;HTU21D;54240;51.096;5.878;2023-03-23T14:35:37;14.06;118.99
67358;HTU21D;54240;51.096;5.878;2023-03-23T14:38:15;14.24;118.99
67358;HTU21D;54240;51.096;5.878;2023-03-23T14:40:42;14.43;118.99
67358;HTU21D;54240;51.096;5.878;2023-03-23T14:43:11;14.63;118.99
67358;HTU21D;54240;51.096;5.878;2023-03-23T14:45:40;14.60;116.43
67358;HTU21D;54240;51.096;5.878;2023-03-23T14:48:07;14.55;118.99
67358;HTU21D;54240;51.096;5.878;2023-03-23T14:50:37;14.78;118.99
67358;HTU21D;54240;51.096;5.878;2023-03-23T14:55:53;14.93;62.02
67358;HTU21D;54240;51.096;5.878;2023-03-23T14:58:21;15.02;74.67
67358;HTU21D;54240;51.096;5.878;2023-03-23T15:03:22;15.26;39.62
67358;HTU21D;54240;51.096;5.878;2023-03-23T15:05:56;15.44;5.36
67358;HTU21D;54240;51.096;5.878;2023-03-23T15:08:30;15.40;51.46
67358;HTU21D;54240;51.096;5.878;2023-03-23T15:13:49;15.48;-6.00
67358;HTU21D;54240;51.096;5.878;2023-03-23T15:16:26;15.27;-6.00
67358;HTU21D;54240;51.096;5.878;2023-03-23T15:18:56;15.23;-6.00
67358;HTU21D;54240;51.096;5.878;2023-03-23T15:21:29;15.15;-6.00
67358;HTU21D;54240;51.096;5.878;2023-03-23T15:23:57;15.17;-6.00
67358;HTU21D;54240;51.096;5.878;2023-03-23T15:28:49;14.98;-6.00
67358;HTU21D;54240;51.096;5.878;2023-03-23T15:31:15;14.81;-1.16
67358;HTU21D;54240;51.096;5.878;2023-03-23T15:33:42;14.92;23.33
67358;HTU21D;54240;51.096;5.878;2023-03-23T15:36:16;14.94;-3.69
67358;HTU21D;54240;51.096;5.878;2023-03-23T15:38:45;15.27;11.21
67358;HTU21D;54240;51.096;5.878;2023-03-23T15:41:32;15.54;-6.00
67358;HTU21D;54240;51.096;5.878;2023-03-23T15:44:18;15.76;-6.00
67358;HTU21D;54240;51.096;5.878;2023-03-23T15:46:51;15.81;-6.00
67358;HTU21D;54240;51.096;5.878;2023-03-23T15:49:18;15.59;-6.00
67358;HTU21D;54240;51.096;5.878;2023-03-23T15:51:44;15.37;-6.00
67358;HTU21D;54240;51.096;5.878;2023-03-23T15:54:14;15.46;-6.00
67358;HTU21D;54240;51.096;5.878;2023-03-23T15:56:42;15.25;-6.00
67358;HTU21D;54240;51.096;5.878;2023-03-23T15:59:09;15.18;-6.00
67358;HTU21D;54240;51.096;5.878;2023-03-23T16:01:39;15.23;-6.00
67358;HTU21D;54240;51.096;5.878;2023-03-23T16:06:33;15.12;-6.00
67358;HTU21D;54240;51.096;5.878;2023-03-23T16:09:00;15.13;-6.00
67358;HTU21D;54240;51.096;5.878;2023-03-23T16:11:28;15.14;-6.00
67358;HTU21D;54240;51.096;5.878;2023-03-23T16:13:56;15.10;-6.00
67358;HTU21D;54240;51.096;5.878;2023-03-23T16:16:43;15.08;-6.00
67358;HTU21D;54240;51.096;5.878;2023-03-23T16:19:12;14.92;-6.00
67358;HTU21D;54240;51.096;5.878;2023-03-23T16:21:39;15.06;-6.00
67358;HTU21D;54240;51.096;5.878;2023-03-23T16:24:07;14.98;-6.00
67358;HTU21D;54240;51.096;5.878;2023-03-23T16:26:34;15.06;-6.00
67358;HTU21D;54240;51.096;5.878;2023-03-23T16:29:00;15.17;-6.00
67358;HTU21D;54240;51.096;5.878;2023-03-23T16:31:28;15.14;-6.00
67358;HTU21D;54240;51.096;5.878;2023-03-23T16:33:54;15.36;-6.00
67358;HTU21D;54240;51.096;5.878;2023-03-23T16:36:20;15.32;-6.00
67358;HTU21D;54240;51.096;5.878;2023-03-23T16:38:46;15.40;-6.00
67358;HTU21D;54240;51.096;5.878;2023-03-23T16:41:12;15.52;-6.00
67358;HTU21D;54240;51.096;5.878;2023-03-23T16:43:38;15.57;-6.00
67358;HTU21D;54240;51.096;5.878;2023-03-23T16:46:03;15.68;-6.00
67358;HTU21D;54240;51.096;5.878;2023-03-23T16:48:29;15.77;-6.00
67358;HTU21D;54240;51.096;5.878;2023-03-23T16:50:55;15.73;-6.00
67358;HTU21D;54240;51.096;5.878;2023-03-23T16:53:22;15.59;-6.00
67358;HTU21D;54240;51.096;5.878;2023-03-23T16:55:52;15.55;-6.00
67358;HTU21D;54240;51.096;5.878;2023-03-23T16:58:19;15.49;-6.00
67358;HTU21D;54240;51.096;5.878;2023-03-23T17:00:48;15.52;-6.00
67358;HTU21D;54240;51.096;5.878;2023-03-23T17:03:15;15.33;-6.00
67358;HTU21D;54240;51.096;5.878;2023-03-23T17:05:42;15.17;-6.00
67358;HTU21D;54240;51.096;5.878;2023-03-23T17:08:10;15.22;-6.00
67358;HTU21D;54240;51.096;5.878;2023-03-23T17:10:37;15.16;-6.00
67358;HTU21D;54240;51.096;5.878;2023-03-23T17:13:04;15.31;-6.00
67358;HTU21D;54240;51.096;5.878;2023-03-23T17:15:29;15.33;-6.00
67358;HTU21D;54240;51.096;5.878;2023-03-23T17:17:55;15.38;-6.00
67358;HTU21D;54240;51.096;5.878;2023-03-23T17:20:22;15.38;-6.00
67358;HTU21D;54240;51.096;5.878;2023-03-23T17:22:49;15.29;-6.00
67358;HTU21D;54240;51.096;5.878;2023-03-23T17:25:15;15.24;-6.00
67358;HTU21D;54240;51.096;5.878;2023-03-23T17:27:41;15.28;-6.00
67358;HTU21D;54240;51.096;5.878;2023-03-23T17:30:08;15.14;-6.00
67358;HTU21D;54240;51.096;5.878;2023-03-23T17:32:34;15.03;-6.00